Time;durP1;ratioP1;P1;durP2;ratioP2;P2;SDS_P1;SDS_P2;PMS_P1;PMS_P2;Temp;Humidity;BMP_temperature;BMP_pressure;BME280_temperature;BME280_humidity;BME280_pressure;Samples;Min_cycle;Max_cycle;Signal;HPM_P1;HPM_P2
2021/10/24 00:01:03;;;;;;;10.53;4.10;;;9.30;99.90;;;;;;5116108;28;20522;-69
2021/10/24 00:03:31;;;;;;;6.83;4.13;;;9.30;99.90;;;;;;5115190;28;20469;-69
2021/10/24 00:06:00;;;;;;;7.97;3.80;;;9.30;99.90;;;;;;5117339;28;20513;-69
2021/10/24 00:08:26;;;;;;;11.27;4.90;;;9.30;99.90;;;;;;5119097;28;20448;-69
2021/10/24 00:10:53;;;;;;;6.23;4.30;;;9.40;99.90;;;;;;5118995;28;20469;-68
2021/10/24 00:13:20;;;;;;;6.33;4.10;;;9.30;99.90;;;;;;5118810;27;20490;-68
2021/10/24 00:15:46;;;;;;;14.50;4.70;;;9.30;99.90;;;;;;5118922;28;20530;-69
2021/10/24 00:18:13;;;;;;;8.57;4.00;;;9.40;99.90;;;;;;5119933;28;20464;-68
2021/10/24 00:20:41;;;;;;;5.30;3.30;;;9.30;99.90;;;;;;5118216;27;20461;-67
2021/10/24 00:23:08;;;;;;;5.97;3.83;;;9.40;99.90;;;;;;5118784;27;20452;-67
2021/10/24 00:25:35;;;;;;;5.80;4.13;;;9.40;99.90;;;;;;5118066;28;20529;-68
2021/10/24 00:28:02;;;;;;;11.73;6.10;;;9.30;99.90;;;;;;5118431;28;20938;-68
2021/10/24 00:30:29;;;;;;;8.10;4.20;;;9.40;99.90;;;;;;5118597;28;20790;-68
2021/10/24 00:32:56;;;;;;;9.30;4.33;;;9.40;99.90;;;;;;5116670;28;20503;-68
2021/10/24 00:35:22;;;;;;;7.33;3.57;;;9.40;99.90;;;;;;5119000;28;20844;-68
2021/10/24 00:37:53;;;;;;;6.60;3.63;;;9.30;99.90;;;;;;5119176;28;20540;-68
2021/10/24 00:40:20;;;;;;;6.73;3.50;;;9.30;99.90;;;;;;5119315;28;20498;-68
2021/10/24 00:42:49;;;;;;;8.40;3.83;;;9.40;99.90;;;;;;5119279;28;20450;-68
2021/10/24 00:45:16;;;;;;;9.80;4.00;;;9.40;99.90;;;;;;5119281;28;20934;-68
2021/10/24 00:47:43;;;;;;;6.40;3.40;;;9.40;99.90;;;;;;5119444;28;20455;-68
2021/10/24 00:50:10;;;;;;;6.33;3.67;;;9.40;99.90;;;;;;5120480;28;20746;-68
2021/10/24 00:52:37;;;;;;;7.63;4.60;;;9.30;99.90;;;;;;5119643;27;20481;-68
2021/10/24 00:55:06;;;;;;;4.13;3.23;;;9.30;99.90;;;;;;5119470;28;20523;-68
2021/10/24 00:57:34;;;;;;;4.93;3.40;;;9.30;99.90;;;;;;5119515;28;20826;-68
2021/10/24 01:00:02;;;;;;;9.43;3.50;;;9.30;99.90;;;;;;5105604;27;20459;-68
2021/10/24 01:02:29;;;;;;;6.07;3.63;;;9.30;99.90;;;;;;5098787;28;20465;-68
2021/10/24 01:04:56;;;;;;;9.83;3.80;;;9.30;99.90;;;;;;5098591;28;20515;-68
2021/10/24 01:07:23;;;;;;;6.20;3.60;;;9.30;99.90;;;;;;5098545;28;20586;-68
2021/10/24 01:09:50;;;;;;;7.27;4.20;;;9.30;99.90;;;;;;5100980;28;20456;-68
2021/10/24 01:12:18;;;;;;;7.10;4.70;;;9.30;99.90;;;;;;5098627;28;20475;-68
2021/10/24 01:14:44;;;;;;;7.37;4.03;;;9.30;99.90;;;;;;5098401;28;20458;-69
2021/10/24 01:17:11;;;;;;;10.73;4.40;;;9.30;99.90;;;;;;5097227;28;20910;-68
2021/10/24 01:19:38;;;;;;;8.20;4.77;;;9.30;99.90;;;;;;5098475;28;20490;-68
2021/10/24 01:22:06;;;;;;;14.40;5.03;;;9.20;99.90;;;;;;5098238;28;20488;-68
2021/10/24 01:24:32;;;;;;;12.50;4.90;;;9.20;99.90;;;;;;5098468;28;20460;-68
2021/10/24 01:27:00;;;;;;;7.33;5.00;;;9.20;99.90;;;;;;5098999;28;20463;-68
2021/10/24 01:29:27;;;;;;;7.50;4.80;;;9.20;99.90;;;;;;5098521;28;20468;-68
2021/10/24 01:31:54;;;;;;;6.80;4.50;;;9.20;99.90;;;;;;5097833;28;20534;-68
2021/10/24 01:34:22;;;;;;;7.90;4.70;;;9.20;99.90;;;;;;5098643;28;20458;-68
2021/10/24 01:36:49;;;;;;;7.63;5.00;;;9.20;99.90;;;;;;5098382;28;20506;-68
2021/10/24 01:39:17;;;;;;;11.60;5.40;;;9.20;99.90;;;;;;5098355;28;20521;-68
2021/10/24 01:41:44;;;;;;;7.27;4.30;;;9.10;99.90;;;;;;5097934;28;20454;-69
2021/10/24 01:44:10;;;;;;;9.50;4.73;;;9.10;99.90;;;;;;5098287;28;20915;-68
2021/10/24 01:46:37;;;;;;;9.97;5.10;;;9.10;99.90;;;;;;5097946;28;20465;-68
2021/10/24 01:49:04;;;;;;;10.30;5.20;;;9.10;99.90;;;;;;5098082;28;20514;-68
2021/10/24 01:51:31;;;;;;;6.73;5.60;;;9.00;99.90;;;;;;5097929;28;20454;-68
2021/10/24 01:53:57;;;;;;;8.80;5.23;;;9.00;99.90;;;;;;5097651;28;20544;-68
2021/10/24 01:56:25;;;;;;;6.80;5.30;;;9.00;99.90;;;;;;5098228;28;20729;-68
2021/10/24 01:58:53;;;;;;;14.33;5.73;;;8.90;99.90;;;;;;5098156;28;20463;-68
2021/10/24 02:01:22;;;;;;;11.43;5.70;;;8.90;99.90;;;;;;5098068;28;20521;-68
2021/10/24 02:03:49;;;;;;;9.87;6.20;;;8.90;99.90;;;;;;5098107;28;20763;-68
2021/10/24 02:06:15;;;;;;;10.77;5.43;;;8.90;99.90;;;;;;5097599;28;20899;-68
2021/10/24 02:08:42;;;;;;;8.40;5.40;;;8.80;99.90;;;;;;5097951;28;20798;-68
2021/10/24 02:11:08;;;;;;;10.13;5.50;;;8.80;99.90;;;;;;5097621;28;20992;-68
2021/10/24 02:13:36;;;;;;;8.77;6.67;;;8.70;99.90;;;;;;5097906;28;20808;-68
2021/10/24 02:16:04;;;;;;;12.93;6.73;;;8.70;99.90;;;;;;5097838;28;20481;-68
2021/10/24 02:18:30;;;;;;;13.83;6.40;;;8.70;99.90;;;;;;5098215;28;20458;-68
2021/10/24 02:20:57;;;;;;;19.80;6.40;;;8.70;99.90;;;;;;5098031;28;20453;-68
2021/10/24 02:23:23;;;;;;;7.67;6.07;;;8.70;99.90;;;;;;5097103;28;20462;-68
2021/10/24 02:25:50;;;;;;;12.20;6.10;;;8.70;99.90;;;;;;5097314;28;20464;-68
2021/10/24 02:28:17;;;;;;;8.27;5.97;;;8.70;99.90;;;;;;5097436;28;20450;-68
2021/10/24 02:30:45;;;;;;;7.47;5.70;;;8.70;99.90;;;;;;5097357;28;20963;-68
2021/10/24 02:33:11;;;;;;;8.03;6.60;;;8.70;99.90;;;;;;5096862;28;20557;-68
2021/10/24 02:35:39;;;;;;;10.67;6.47;;;8.70;99.90;;;;;;5097493;28;20458;-68
2021/10/24 02:38:06;;;;;;;9.97;6.87;;;8.70;99.90;;;;;;5097418;28;20458;-68
2021/10/24 02:40:33;;;;;;;11.60;7.63;;;8.60;99.90;;;;;;5097073;28;20462;-68
2021/10/24 02:43:00;;;;;;;10.90;6.50;;;8.60;99.90;;;;;;5097013;28;20510;-68
2021/10/24 02:45:27;;;;;;;10.90;7.10;;;8.60;99.90;;;;;;5097881;28;20465;-68
2021/10/24 02:47:56;;;;;;;13.47;7.23;;;8.60;99.90;;;;;;5097345;28;20460;-68
2021/10/24 02:50:23;;;;;;;8.50;6.00;;;8.60;99.90;;;;;;5097359;28;20485;-68
2021/10/24 02:52:49;;;;;;;8.97;7.00;;;8.60;99.90;;;;;;5097047;28;20493;-68
2021/10/24 02:55:16;;;;;;;13.57;7.63;;;8.60;99.90;;;;;;5097362;28;20454;-68
2021/10/24 02:57:43;;;;;;;9.80;7.53;;;8.60;99.90;;;;;;5097333;28;20458;-68
2021/10/24 03:00:11;;;;;;;15.47;7.30;;;8.50;99.90;;;;;;5097039;28;20471;-68
2021/10/24 03:02:38;;;;;;;10.53;7.00;;;8.50;99.90;;;;;;5095490;28;20918;-68
2021/10/24 03:05:07;;;;;;;10.30;6.50;;;8.50;99.90;;;;;;5095769;28;20833;-68
2021/10/24 03:07:34;;;;;;;8.50;6.83;;;8.50;99.90;;;;;;5095181;28;20610;-68
2021/10/24 03:10:01;;;;;;;12.40;7.37;;;8.40;99.90;;;;;;5095752;28;20949;-68
2021/10/24 03:12:27;;;;;;;12.83;8.17;;;8.40;99.90;;;;;;5096319;28;20477;-68
2021/10/24 03:14:54;;;;;;;11.93;7.27;;;8.40;99.90;;;;;;5096537;28;20454;-68
2021/10/24 03:17:21;;;;;;;12.13;7.47;;;8.30;99.90;;;;;;5096950;28;20476;-68
2021/10/24 03:19:48;;;;;;;13.17;8.03;;;8.40;99.90;;;;;;5096089;28;20457;-68
2021/10/24 03:22:16;;;;;;;12.70;7.03;;;8.40;99.90;;;;;;5095354;28;20519;-67
2021/10/24 03:24:42;;;;;;;13.70;6.80;;;8.30;99.90;;;;;;5095714;28;20828;-67
2021/10/24 03:27:09;;;;;;;9.23;7.27;;;8.30;99.90;;;;;;5095520;28;20801;-67
2021/10/24 03:29:36;;;;;;;14.70;6.70;;;8.30;99.90;;;;;;5095566;28;20460;-67
2021/10/24 03:32:03;;;;;;;7.40;6.13;;;8.30;99.90;;;;;;5095504;28;20473;-67
2021/10/24 03:34:29;;;;;;;9.17;7.13;;;8.30;99.90;;;;;;5095277;28;20485;-67
2021/10/24 03:36:56;;;;;;;14.63;7.03;;;8.30;99.90;;;;;;5095200;28;20793;-69
2021/10/24 03:39:24;;;;;;;8.97;6.30;;;8.30;99.90;;;;;;5094741;28;20465;-69
2021/10/24 03:41:51;;;;;;;8.87;6.40;;;8.30;99.90;;;;;;5095473;28;20457;-67
2021/10/24 03:44:17;;;;;;;9.23;5.50;;;8.20;99.90;;;;;;5095045;28;20909;-69
2021/10/24 03:46:44;;;;;;;10.10;5.90;;;8.20;99.90;;;;;;5095179;28;20463;-67
2021/10/24 03:49:11;;;;;;;9.37;6.70;;;8.20;99.90;;;;;;5094973;28;20459;-69
2021/10/24 03:51:37;;;;;;;11.90;6.43;;;8.20;99.90;;;;;;5094953;28;20537;-67
2021/10/24 03:54:04;;;;;;;7.50;5.80;;;8.30;99.90;;;;;;5095106;28;20477;-68
2021/10/24 03:56:32;;;;;;;10.03;6.27;;;8.30;99.90;;;;;;5095384;28;20469;-68
2021/10/24 03:58:59;;;;;;;9.63;6.27;;;8.30;99.90;;;;;;5095050;28;20450;-68
2021/10/24 04:01:25;;;;;;;12.83;6.03;;;8.30;99.90;;;;;;5095340;28;20468;-68
2021/10/24 04:03:52;;;;;;;8.77;5.70;;;8.30;99.90;;;;;;5095144;28;20476;-68
2021/10/24 04:06:19;;;;;;;7.23;5.50;;;8.40;99.90;;;;;;5094783;28;20741;-68
2021/10/24 04:08:45;;;;;;;6.37;5.40;;;8.30;99.90;;;;;;5095220;28;20453;-67
2021/10/24 04:11:12;;;;;;;10.07;5.57;;;8.30;99.90;;;;;;5095362;28;20460;-68
2021/10/24 04:13:40;;;;;;;8.40;6.57;;;8.30;99.90;;;;;;5095427;28;20889;-68
2021/10/24 04:16:07;;;;;;;9.53;5.27;;;8.30;99.90;;;;;;5096070;28;20457;-68
2021/10/24 04:18:34;;;;;;;11.47;6.20;;;8.40;99.90;;;;;;5096119;28;20913;-68
2021/10/24 04:21:00;;;;;;;8.47;5.57;;;8.40;99.90;;;;;;5095461;28;20464;-68
2021/10/24 04:23:27;;;;;;;8.03;5.60;;;8.40;99.90;;;;;;5094793;28;20458;-68
2021/10/24 04:25:54;;;;;;;12.60;6.23;;;8.30;99.90;;;;;;5094597;28;20472;-67
2021/10/24 04:28:22;;;;;;;10.17;6.10;;;8.40;99.90;;;;;;5094742;28;20559;-68
2021/10/24 04:30:50;;;;;;;7.40;5.83;;;8.40;99.90;;;;;;5095232;28;20493;-68
2021/10/24 04:33:17;;;;;;;7.80;5.13;;;8.40;99.90;;;;;;5094859;28;20578;-68
2021/10/24 04:35:44;;;;;;;6.73;5.80;;;8.30;99.90;;;;;;5094725;28;20472;-68
2021/10/24 04:38:11;;;;;;;9.73;5.60;;;8.20;99.90;;;;;;5095050;28;20464;-68
2021/10/24 04:40:38;;;;;;;11.70;5.53;;;8.20;99.90;;;;;;5094459;28;20514;-67
2021/10/24 04:43:04;;;;;;;7.40;5.07;;;8.20;99.90;;;;;;5094642;28;20457;-67
2021/10/24 04:45:34;;;;;;;8.80;5.23;;;8.20;99.90;;;;;;5094728;28;20461;-68
2021/10/24 04:48:02;;;;;;;7.20;5.30;;;8.20;99.90;;;;;;5095493;28;20454;-68
2021/10/24 04:50:29;;;;;;;8.00;5.10;;;8.20;99.90;;;;;;5095170;28;20463;-68
2021/10/24 04:52:56;;;;;;;6.03;4.50;;;8.20;99.90;;;;;;5098595;28;20530;-68
2021/10/24 04:55:22;;;;;;;10.87;6.07;;;8.20;99.90;;;;;;5098174;28;20465;-67
2021/10/24 04:57:49;;;;;;;6.63;4.77;;;8.20;99.90;;;;;;5098264;28;20465;-68
2021/10/24 05:00:16;;;;;;;6.93;4.60;;;8.20;99.90;;;;;;5098516;28;20457;-68
2021/10/24 05:02:42;;;;;;;8.00;4.93;;;8.20;99.90;;;;;;5098354;28;20460;-67
2021/10/24 05:05:11;;;;;;;8.93;5.07;;;8.10;99.90;;;;;;5097684;28;20458;-67
2021/10/24 05:07:38;;;;;;;8.60;4.93;;;8.10;99.90;;;;;;5098128;28;20476;-68
2021/10/24 05:10:06;;;;;;;7.00;5.43;;;8.10;99.90;;;;;;5097758;28;20842;-68
2021/10/24 05:12:32;;;;;;;9.23;5.20;;;8.10;99.90;;;;;;5098542;28;20517;-68
2021/10/24 05:14:59;;;;;;;7.23;5.10;;;8.00;99.90;;;;;;5098242;28;20517;-68
2021/10/24 05:17:26;;;;;;;8.60;6.10;;;8.00;99.90;;;;;;5097892;28;20479;-67
2021/10/24 05:19:53;;;;;;;8.80;6.47;;;8.00;99.90;;;;;;5098367;28;20457;-67
2021/10/24 05:22:21;;;;;;;10.03;5.60;;;8.00;99.90;;;;;;5098908;28;20463;-67
2021/10/24 05:24:48;;;;;;;8.37;5.13;;;7.90;99.90;;;;;;5098450;28;20938;-68
2021/10/24 05:27:15;;;;;;;9.93;5.70;;;7.90;99.90;;;;;;5099251;28;20455;-67
2021/10/24 05:29:41;;;;;;;8.80;5.50;;;7.80;99.90;;;;;;5098525;28;20461;-67
2021/10/24 05:32:08;;;;;;;8.40;6.37;;;7.80;99.90;;;;;;5098479;28;20518;-67
2021/10/24 05:34:35;;;;;;;12.03;6.07;;;7.70;99.90;;;;;;5098375;28;20543;-68
2021/10/24 05:37:02;;;;;;;10.90;5.90;;;7.70;99.90;;;;;;5098124;28;20457;-67
2021/10/24 05:39:30;;;;;;;14.93;6.77;;;7.60;99.90;;;;;;5097547;28;20475;-68
2021/10/24 05:41:57;;;;;;;9.77;6.57;;;7.60;99.90;;;;;;5097716;28;20461;-68
2021/10/24 05:44:24;;;;;;;5.50;5.00;;;7.50;99.90;;;;;;5097927;28;20463;-68
2021/10/24 05:46:53;;;;;;;15.57;6.37;;;7.40;99.90;;;;;;5097046;28;20459;-68
2021/10/24 05:49:19;;;;;;;9.63;7.23;;;7.30;99.90;;;;;;5097612;28;20460;-68
2021/10/24 05:51:46;;;;;;;8.17;5.77;;;7.30;99.90;;;;;;5096997;28;20549;-68
2021/10/24 05:54:13;;;;;;;10.57;6.37;;;7.20;99.90;;;;;;5096915;28;20544;-68
2021/10/24 05:56:41;;;;;;;9.10;6.97;;;7.20;99.90;;;;;;5096688;28;20456;-68
2021/10/24 05:59:08;;;;;;;7.73;6.80;;;7.10;99.90;;;;;;5096691;28;20525;-68
2021/10/24 06:01:34;;;;;;;15.43;8.00;;;7.10;99.90;;;;;;5096510;28;20463;-67
2021/10/24 06:04:01;;;;;;;9.40;7.00;;;7.00;99.90;;;;;;5095874;28;20957;-68
2021/10/24 06:06:28;;;;;;;11.77;6.90;;;7.00;99.90;;;;;;5096713;28;20518;-67
2021/10/24 06:08:54;;;;;;;10.73;7.33;;;7.00;99.90;;;;;;5096261;28;20891;-68
2021/10/24 06:11:27;;;;;;;10.00;7.47;;;7.00;99.90;;;;;;5096563;28;20464;-68
2021/10/24 06:13:55;;;;;;;8.73;7.20;;;7.00;99.90;;;;;;5096490;28;20464;-67
2021/10/24 06:16:22;;;;;;;10.00;7.50;;;7.00;99.90;;;;;;5096236;28;20461;-68
2021/10/24 06:18:50;;;;;;;15.10;7.60;;;6.90;99.90;;;;;;5096391;28;20451;-69
2021/10/24 06:21:16;;;;;;;9.33;7.20;;;6.90;99.90;;;;;;5096224;28;20459;-68
2021/10/24 06:23:43;;;;;;;8.97;6.70;;;6.90;99.90;;;;;;5096437;28;20456;-68
2021/10/24 06:26:10;;;;;;;15.50;7.73;;;6.90;99.90;;;;;;5096137;28;20951;-68
2021/10/24 06:28:37;;;;;;;10.30;7.63;;;6.90;99.90;;;;;;5096007;28;20928;-68
2021/10/24 06:31:05;;;;;;;12.60;7.87;;;6.90;99.90;;;;;;5096790;28;20789;-68
2021/10/24 06:33:31;;;;;;;13.83;8.13;;;7.00;99.90;;;;;;5096179;28;21001;-68
2021/10/24 06:35:58;;;;;;;12.30;7.97;;;7.00;99.90;;;;;;5096344;28;20471;-68
2021/10/24 06:38:25;;;;;;;12.80;7.80;;;7.00;99.90;;;;;;5095987;28;20464;-69
2021/10/24 06:40:52;;;;;;;12.07;7.50;;;7.00;99.90;;;;;;5096159;28;20823;-68
2021/10/24 06:43:18;;;;;;;15.77;8.47;;;7.10;99.90;;;;;;5096314;28;20550;-68
2021/10/24 06:45:46;;;;;;;11.40;7.50;;;7.10;99.90;;;;;;5095710;28;20452;-73
2021/10/24 06:48:17;;;;;;;13.13;7.63;;;7.10;99.90;;;;;;5095713;28;20782;-68
2021/10/24 06:50:44;;;;;;;16.47;8.33;;;7.10;99.90;;;;;;5096507;28;20489;-69
2021/10/24 06:53:11;;;;;;;14.27;8.33;;;7.00;99.90;;;;;;5095084;28;20460;-69
2021/10/24 06:55:37;;;;;;;11.37;7.87;;;6.90;99.90;;;;;;5095095;28;20490;-68
2021/10/24 06:58:04;;;;;;;10.60;8.33;;;6.90;99.90;;;;;;5095320;28;20838;-69
2021/10/24 07:00:31;;;;;;;12.57;8.03;;;7.00;99.90;;;;;;5095284;28;20516;-68
2021/10/24 07:02:58;;;;;;;15.53;8.30;;;7.00;99.90;;;;;;5095061;28;20472;-68
2021/10/24 07:05:27;;;;;;;10.60;7.30;;;7.00;99.90;;;;;;5095117;28;20457;-69
2021/10/24 07:07:54;;;;;;;10.60;7.90;;;7.00;99.90;;;;;;5094941;28;20484;-69
2021/10/24 07:10:20;;;;;;;13.57;8.40;;;7.00;99.90;;;;;;5094813;28;20469;-69
2021/10/24 07:12:51;;;;;;;13.50;7.77;;;7.00;99.90;;;;;;5094326;28;20453;-68
2021/10/24 07:15:20;;;;;;;11.40;7.77;;;7.00;99.90;;;;;;5093854;28;20859;-69
2021/10/24 07:17:47;;;;;;;11.10;8.30;;;7.00;99.90;;;;;;5094704;28;20455;-69
2021/10/24 07:20:14;;;;;;;9.40;7.30;;;7.00;99.90;;;;;;5094808;28;20824;-68
2021/10/24 07:22:43;;;;;;;11.83;8.27;;;7.10;99.90;;;;;;5096370;28;20460;-69
2021/10/24 07:25:10;;;;;;;12.40;7.77;;;7.10;99.90;;;;;;5105576;28;20453;-69
2021/10/24 07:27:37;;;;;;;14.23;8.37;;;7.20;99.90;;;;;;5101979;28;20456;-69
2021/10/24 07:30:06;;;;;;;11.47;7.90;;;7.20;99.90;;;;;;5094794;28;20510;-69
2021/10/24 07:32:33;;;;;;;16.13;7.60;;;7.30;99.90;;;;;;5094751;28;20903;-69
2021/10/24 07:35:00;;;;;;;11.70;7.67;;;7.30;99.90;;;;;;5094828;28;20485;-69
2021/10/24 07:37:26;;;;;;;12.50;7.50;;;7.40;99.90;;;;;;5094522;28;20490;-69
2021/10/24 07:39:57;;;;;;;17.40;7.80;;;7.40;99.90;;;;;;5095205;28;20897;-69
2021/10/24 07:42:24;;;;;;;17.50;8.60;;;7.50;99.90;;;;;;5094737;28;20441;-69
2021/10/24 07:44:51;;;;;;;11.30;7.70;;;7.50;99.90;;;;;;5094493;28;20480;-69
2021/10/24 07:47:19;;;;;;;16.50;8.40;;;7.60;99.90;;;;;;5094636;28;20463;-69
2021/10/24 07:49:45;;;;;;;11.37;8.70;;;7.60;99.90;;;;;;5094298;28;20459;-69
2021/10/24 07:52:12;;;;;;;10.77;8.93;;;7.70;99.90;;;;;;5094415;28;20529;-68
2021/10/24 07:54:39;;;;;;;12.93;8.17;;;7.70;99.90;;;;;;5094080;28;20983;-67
2021/10/24 07:57:07;;;;;;;14.43;8.13;;;7.80;99.90;;;;;;5094594;28;20464;-68
2021/10/24 07:59:33;;;;;;;12.63;7.93;;;7.90;99.90;;;;;;5094618;28;20534;-68
2021/10/24 08:02:01;;;;;;;15.87;8.83;;;8.00;99.90;;;;;;5094302;28;20467;-68
2021/10/24 08:04:28;;;;;;;11.93;8.80;;;8.10;99.90;;;;;;5094467;28;20468;-68
2021/10/24 08:06:55;;;;;;;11.50;9.10;;;8.20;99.90;;;;;;5093983;28;20484;-68
2021/10/24 08:09:22;;;;;;;13.40;8.77;;;8.30;99.90;;;;;;5094330;28;20471;-68
2021/10/24 08:11:50;;;;;;;13.37;8.97;;;8.40;99.90;;;;;;5094370;28;20457;-68
2021/10/24 08:14:18;;;;;;;12.53;7.00;;;8.40;99.90;;;;;;5094006;28;20479;-68
2021/10/24 08:16:45;;;;;;;11.77;7.20;;;8.50;99.90;;;;;;5094306;28;20483;-68
2021/10/24 08:19:13;;;;;;;9.30;7.13;;;8.60;99.90;;;;;;5094098;28;20461;-68
2021/10/24 08:21:40;;;;;;;13.33;6.83;;;8.60;99.90;;;;;;5094405;28;20469;-68
2021/10/24 08:24:07;;;;;;;9.90;7.10;;;8.60;99.90;;;;;;5093905;28;20896;-68
2021/10/24 08:26:34;;;;;;;11.63;6.83;;;8.70;99.90;;;;;;5096753;28;20774;-68
2021/10/24 08:29:01;;;;;;;10.90;6.57;;;8.70;99.90;;;;;;5097991;28;20453;-68
2021/10/24 08:31:30;;;;;;;12.90;7.57;;;8.80;99.90;;;;;;5097985;28;20457;-68
2021/10/24 08:33:58;;;;;;;13.57;7.73;;;8.90;99.90;;;;;;5098109;28;20553;-68
2021/10/24 08:36:26;;;;;;;14.30;6.87;;;9.00;99.90;;;;;;5097997;28;20465;-68
2021/10/24 08:38:54;;;;;;;11.50;6.93;;;9.00;99.90;;;;;;5097827;28;20467;-68
2021/10/24 08:41:26;;;;;;;18.37;8.70;;;9.20;99.90;;;;;;5097383;28;20924;-68
2021/10/24 08:43:53;;;;;;;14.63;7.13;;;9.30;99.90;;;;;;5097704;28;20492;-68
2021/10/24 08:46:21;;;;;;;12.33;7.33;;;9.50;99.90;;;;;;5097980;28;20833;-68
2021/10/24 08:48:50;;;;;;;9.17;6.93;;;9.60;99.90;;;;;;5097767;28;20522;-68
2021/10/24 08:51:17;;;;;;;13.20;8.07;;;9.80;99.90;;;;;;5097401;28;20457;-68
2021/10/24 08:53:44;;;;;;;12.87;8.30;;;9.90;99.90;;;;;;5097226;28;20460;-68
2021/10/24 08:56:16;;;;;;;9.77;7.13;;;10.00;99.90;;;;;;5097613;28;20496;-68
2021/10/24 08:58:43;;;;;;;19.63;7.40;;;10.10;99.90;;;;;;5097374;28;20448;-68
2021/10/24 09:01:09;;;;;;;8.53;7.13;;;10.20;99.90;;;;;;5097636;28;20460;-68
2021/10/24 09:03:37;;;;;;;10.63;7.30;;;10.20;99.90;;;;;;5097448;28;20467;-69
2021/10/24 09:06:06;;;;;;;12.97;7.17;;;10.30;99.90;;;;;;5097365;28;20488;-68
2021/10/24 09:08:38;;;;;;;11.90;6.53;;;10.40;99.90;;;;;;5096802;28;20493;-68
2021/10/24 09:11:05;;;;;;;9.70;6.33;;;10.30;99.90;;;;;;5097767;28;20502;-68
2021/10/24 09:13:33;;;;;;;12.80;6.50;;;10.30;99.90;;;;;;5097254;28;20464;-68
2021/10/24 09:16:01;;;;;;;11.80;6.77;;;10.40;99.90;;;;;;5097174;28;20473;-68
2021/10/24 09:18:34;;;;;;;10.17;6.43;;;10.40;99.90;;;;;;5096942;28;20461;-68
2021/10/24 09:21:20;;;;;;;16.17;5.70;;;10.50;99.90;;;;;;5097213;28;20458;-68
2021/10/24 09:23:50;;;;;;;8.63;5.83;;;10.60;99.90;;;;;;5097043;28;20449;-69
2021/10/24 09:26:20;;;;;;;10.07;5.07;;;10.70;99.90;;;;;;5096820;28;20448;-69
2021/10/24 09:28:57;;;;;;;7.57;5.40;;;10.70;99.90;;;;;;5096851;28;20453;-69
2021/10/24 09:31:28;;;;;;;10.43;5.33;;;10.70;99.90;;;;;;5096702;28;20775;-68
2021/10/24 09:33:56;;;;;;;7.67;4.87;;;10.70;99.90;;;;;;5097098;28;20441;-68
2021/10/24 09:36:29;;;;;;;7.23;5.73;;;10.70;99.90;;;;;;5097063;28;20576;-68
2021/10/24 09:39:08;;;;;;;9.43;4.40;;;10.70;99.90;;;;;;5096068;28;20451;-68
2021/10/24 09:41:37;;;;;;;8.17;4.77;;;10.70;99.90;;;;;;5096712;28;20499;-68
2021/10/24 09:44:14;;;;;;;10.40;4.20;;;10.50;99.90;;;;;;5097083;28;20510;-69
2021/10/24 09:46:55;;;;;;;8.97;4.20;;;10.50;99.90;;;;;;5096386;28;20879;-69
2021/10/24 09:49:23;;;;;;;10.90;4.37;;;10.50;99.90;;;;;;5097108;28;20545;-69
2021/10/24 09:51:51;;;;;;;4.53;3.83;;;10.50;99.90;;;;;;5096867;28;20554;-68
2021/10/24 09:54:22;;;;;;;8.77;4.60;;;10.50;99.90;;;;;;5096166;28;20455;-70
2021/10/24 09:56:50;;;;;;;6.77;3.43;;;10.50;99.90;;;;;;5096666;28;20461;-68
2021/10/24 09:59:19;;;;;;;7.40;3.40;;;10.60;99.90;;;;;;5096774;28;20544;-68
2021/10/24 10:01:47;;;;;;;7.43;4.10;;;10.70;99.90;;;;;;5096353;28;20453;-68
2021/10/24 10:04:14;;;;;;;10.17;4.07;;;10.70;99.90;;;;;;5096474;28;20467;-68
2021/10/24 10:06:45;;;;;;;5.93;4.03;;;10.80;99.90;;;;;;5096208;28;20500;-68
2021/10/24 10:09:14;;;;;;;6.00;3.40;;;10.80;99.90;;;;;;5096151;28;20503;-68
2021/10/24 10:11:48;;;;;;;5.60;4.00;;;10.80;99.90;;;;;;5096217;28;20522;-68
2021/10/24 10:14:20;;;;;;;10.50;4.10;;;10.90;99.90;;;;;;5095789;28;20443;-69
2021/10/24 10:16:52;;;;;;;8.17;3.90;;;11.00;99.90;;;;;;5096391;28;20443;-68
2021/10/24 10:19:29;;;;;;;11.30;4.63;;;11.00;99.90;;;;;;5095997;28;20456;-68
2021/10/24 10:21:56;;;;;;;8.17;5.40;;;11.00;99.90;;;;;;5096163;28;20514;-68
2021/10/24 10:24:48;;;;;;;7.57;4.03;;;11.10;99.90;;;;;;5096099;28;20468;-68
2021/10/24 10:27:43;;;;;;;9.53;4.30;;;11.20;99.90;;;;;;5096561;28;20555;-68
2021/10/24 10:30:13;;;;;;;8.77;3.73;;;11.40;99.90;;;;;;5091464;28;20462;-68
2021/10/24 10:32:42;;;;;;;7.30;3.77;;;11.40;99.90;;;;;;5096145;28;20458;-68
2021/10/24 10:35:11;;;;;;;9.23;4.40;;;11.50;99.90;;;;;;5095927;28;20478;-68
2021/10/24 10:37:52;;;;;;;4.83;4.30;;;11.50;99.90;;;;;;5095679;28;20465;-68
2021/10/24 10:40:23;;;;;;;7.80;4.33;;;11.60;99.90;;;;;;5095928;28;20452;-68
2021/10/24 10:42:55;;;;;;;6.57;3.70;;;11.80;99.90;;;;;;5096870;28;20438;-68
2021/10/24 10:45:39;;;;;;;7.93;3.93;;;11.70;99.90;;;;;;5095550;28;20455;-68
2021/10/24 10:48:07;;;;;;;7.23;4.50;;;11.70;99.90;;;;;;5095559;28;20776;-68
2021/10/24 10:50:48;;;;;;;9.17;3.70;;;11.70;99.90;;;;;;5095011;28;20548;-68
2021/10/24 10:53:34;;;;;;;7.90;4.40;;;11.80;99.90;;;;;;5095335;28;20465;-68
2021/10/24 10:56:24;;;;;;;8.57;3.73;;;11.90;99.90;;;;;;5094893;28;20485;-68
2021/10/24 10:58:52;;;;;;;8.20;3.83;;;12.10;99.90;;;;;;5095475;28;20495;-69
2021/10/24 11:01:25;;;;;;;5.83;3.60;;;12.30;99.90;;;;;;5095406;28;20485;-68
2021/10/24 11:03:53;;;;;;;6.57;3.33;;;12.30;99.90;;;;;;5095525;28;20758;-68
2021/10/24 11:07:06;;;;;;;5.00;3.30;;;12.30;99.90;;;;;;5094891;28;20858;-68
2021/10/24 11:09:49;;;;;;;4.83;3.03;;;12.40;99.90;;;;;;5070411;28;20465;-68
2021/10/24 11:12:51;;;;;;;4.57;3.17;;;12.40;99.90;;;;;;5095348;28;20456;-68
2021/10/24 11:15:31;;;;;;;4.17;2.77;;;12.40;99.90;;;;;;5052554;28;20466;-68
2021/10/24 11:18:04;;;;;;;4.37;3.07;;;12.50;99.90;;;;;;5053404;28;20476;-68
2021/10/24 11:20:41;;;;;;;10.67;3.93;;;12.50;99.90;;;;;;5077550;28;20552;-68
2021/10/24 11:23:12;;;;;;;6.23;3.43;;;12.50;99.90;;;;;;5094945;28;20544;-68
2021/10/24 11:25:40;;;;;;;3.90;3.10;;;12.70;99.90;;;;;;5095350;28;20437;-69
2021/10/24 11:28:14;;;;;;;8.63;2.77;;;12.80;99.90;;;;;;5095448;28;20454;-68
2021/10/24 11:30:42;;;;;;;6.83;2.70;;;12.90;99.90;;;;;;5097892;28;20444;-68
2021/10/24 11:33:09;;;;;;;4.03;2.80;;;13.00;99.90;;;;;;5099339;28;20465;-69
2021/10/24 11:35:38;;;;;;;5.77;2.70;;;13.10;99.90;;;;;;5099091;28;20485;-67
2021/10/24 11:38:08;;;;;;;6.33;2.20;;;13.20;99.90;;;;;;5097986;28;20464;-67
2021/10/24 11:40:37;;;;;;;2.70;2.10;;;13.30;99.90;;;;;;5099615;28;20461;-69
2021/10/24 11:43:11;;;;;;;4.67;2.30;;;13.50;99.90;;;;;;5100560;28;20627;-69
2021/10/24 11:45:41;;;;;;;4.63;2.57;;;13.70;99.90;;;;;;5100627;28;20475;-69
2021/10/24 11:48:10;;;;;;;3.53;2.50;;;14.10;99.90;;;;;;5101208;28;20538;-68
2021/10/24 11:50:45;;;;;;;4.10;2.50;;;15.00;99.90;;;;;;5099385;28;20513;-68
2021/10/24 11:53:12;;;;;;;5.20;2.63;;;16.30;99.90;;;;;;5096362;28;20454;-68
2021/10/24 11:55:40;;;;;;;3.70;2.17;;;17.70;99.90;;;;;;5094089;28;20482;-68
2021/10/24 11:58:20;;;;;;;4.90;2.10;;;18.90;99.90;;;;;;5094519;28;20583;-69
2021/10/24 12:00:52;;;;;;;7.43;2.27;;;19.50;99.90;;;;;;5095599;28;20441;-68
2021/10/24 12:03:30;;;;;;;3.80;1.60;;;19.80;99.90;;;;;;5098613;28;20452;-69
2021/10/24 12:05:57;;;;;;;4.30;2.17;;;20.40;99.90;;;;;;5098439;28;20438;-68
2021/10/24 12:08:47;;;;;;;3.73;1.90;;;21.30;99.90;;;;;;5098322;28;20850;-67
2021/10/24 12:11:20;;;;;;;2.50;1.83;;;22.40;99.90;;;;;;5098493;28;20457;-67
2021/10/24 12:13:47;;;;;;;2.47;2.00;;;23.50;96.00;;;;;;5099248;28;20806;-69
2021/10/24 12:16:31;;;;;;;2.80;1.70;;;24.10;94.00;;;;;;5099098;28;20931;-68
2021/10/24 12:19:18;;;;;;;3.80;1.80;;;25.10;90.10;;;;;;5098608;28;20442;-68
2021/10/24 12:21:56;;;;;;;4.23;1.70;;;25.70;78.70;;;;;;5098534;28;20902;-73
2021/10/24 12:24:24;;;;;;;3.10;1.30;;;25.70;70.80;;;;;;5098066;28;20472;-73
2021/10/24 12:27:04;;;;;;;4.17;2.60;;;25.60;63.40;;;;;;5098038;28;20454;-74
2021/10/24 12:29:31;;;;;;;3.07;1.57;;;25.20;63.60;;;;;;5098165;28;20441;-74
2021/10/24 12:32:10;;;;;;;5.53;1.37;;;25.70;65.30;;;;;;5098354;28;20457;-74
2021/10/24 12:34:37;;;;;;;2.00;1.40;;;26.40;61.90;;;;;;5097710;28;20540;-74
2021/10/24 12:37:16;;;;;;;4.17;1.70;;;26.60;57.10;;;;;;5097648;28;20477;-73
2021/10/24 12:39:43;;;;;;;3.30;1.57;;;26.60;55.40;;;;;;5097990;28;20473;-73
2021/10/24 12:42:20;;;;;;;3.23;1.87;;;26.40;55.60;;;;;;5097693;28;20465;-74
2021/10/24 12:44:48;;;;;;;2.97;1.83;;;26.70;53.70;;;;;;5097980;28;20488;-69
2021/10/24 12:47:17;;;;;;;2.90;1.60;;;26.20;53.30;;;;;;5098133;28;20449;-68
2021/10/24 12:49:54;;;;;;;4.17;1.63;;;25.80;52.60;;;;;;5098341;28;20936;-68
2021/10/24 12:52:21;;;;;;;2.70;1.40;;;24.90;53.00;;;;;;5097920;28;20552;-68
2021/10/24 12:54:58;;;;;;;2.50;1.67;;;24.60;53.20;;;;;;5098280;28;20464;-69
2021/10/24 12:57:24;;;;;;;5.23;1.73;;;24.80;55.80;;;;;;5097831;28;20856;-69
2021/10/24 12:59:51;;;;;;;3.87;1.93;;;25.30;55.20;;;;;;5097776;28;20457;-68